sensor_id;sensor_type;location;lat;lon;timestamp;pressure;altitude;pressure_sealevel;temperature;humidity
54854;BME280;40747;49.480;8.658;2022-08-19T00:02:09;99883.44;;;21.68;82.15
54854;BME280;40747;49.480;8.658;2022-08-19T00:04:35;99876.16;;;21.58;82.43
54854;BME280;40747;49.480;8.658;2022-08-19T00:07:02;99880.69;;;21.58;82.81
54854;BME280;40747;49.480;8.658;2022-08-19T00:09:28;99868.50;;;21.54;83.12
54854;BME280;40747;49.480;8.658;2022-08-19T00:11:54;99854.19;;;21.43;83.54
54854;BME280;40747;49.480;8.658;2022-08-19T00:14:21;99852.97;;;21.36;83.73
54854;BME280;40747;49.480;8.658;2022-08-19T00:16:48;99839.28;;;21.18;84.56
54854;BME280;40747;49.480;8.658;2022-08-19T00:19:14;99834.31;;;21.14;85.65
54854;BME280;40747;49.480;8.658;2022-08-19T00:21:41;99832.88;;;21.09;85.53
54854;BME280;40747;49.480;8.658;2022-08-19T00:24:08;99834.91;;;21.17;85.08
54854;BME280;40747;49.480;8.658;2022-08-19T00:26:34;99836.50;;;21.08;85.46
54854;BME280;40747;49.480;8.658;2022-08-19T00:28:59;99836.31;;;21.33;84.84
54854;BME280;40747;49.480;8.658;2022-08-19T00:31:26;99849.28;;;21.49;84.53
54854;BME280;40747;49.480;8.658;2022-08-19T00:33:53;99851.94;;;21.60;83.84
54854;BME280;40747;49.480;8.658;2022-08-19T00:36:18;99852.25;;;21.67;83.42
54854;BME280;40747;49.480;8.658;2022-08-19T00:38:44;99858.53;;;21.77;83.59
54854;BME280;40747;49.480;8.658;2022-08-19T00:41:14;99856.16;;;21.84;83.29
54854;BME280;40747;49.480;8.658;2022-08-19T00:43:41;99851.25;;;21.89;83.48
54854;BME280;40747;49.480;8.658;2022-08-19T00:46:07;99840.69;;;21.87;82.77
54854;BME280;40747;49.480;8.658;2022-08-19T00:48:33;99847.16;;;21.85;82.33
54854;BME280;40747;49.480;8.658;2022-08-19T00:50:59;99844.75;;;21.82;82.51
54854;BME280;40747;49.480;8.658;2022-08-19T00:53:27;99846.44;;;21.83;82.78
54854;BME280;40747;49.480;8.658;2022-08-19T00:55:56;99842.13;;;21.70;82.78
54854;BME280;40747;49.480;8.658;2022-08-19T00:58:27;99848.31;;;21.50;83.76
54854;BME280;40747;49.480;8.658;2022-08-19T01:00:54;99840.75;;;21.55;83.67
54854;BME280;40747;49.480;8.658;2022-08-19T01:03:20;99841.91;;;21.62;84.20
54854;BME280;40747;49.480;8.658;2022-08-19T01:05:47;99851.47;;;21.76;83.42
54854;BME280;40747;49.480;8.658;2022-08-19T01:08:15;99852.59;;;21.73;83.40
54854;BME280;40747;49.480;8.658;2022-08-19T01:10:45;99843.44;;;21.76;83.45
54854;BME280;40747;49.480;8.658;2022-08-19T01:13:14;99835.47;;;21.53;83.89
54854;BME280;40747;49.480;8.658;2022-08-19T01:15:44;99821.06;;;21.44;84.15
54854;BME280;40747;49.480;8.658;2022-08-19T01:18:14;99838.72;;;21.68;84.10
54854;BME280;40747;49.480;8.658;2022-08-19T01:20:42;99842.19;;;21.80;83.15
54854;BME280;40747;49.480;8.658;2022-08-19T01:23:08;99846.19;;;21.86;83.54
54854;BME280;40747;49.480;8.658;2022-08-19T01:25:47;99860.88;;;21.91;83.88
54854;BME280;40747;49.480;8.658;2022-08-19T01:28:26;99861.75;;;21.92;83.79
54854;BME280;40747;49.480;8.658;2022-08-19T01:30:52;99863.56;;;21.91;83.56
54854;BME280;40747;49.480;8.658;2022-08-19T01:33:19;99861.66;;;21.82;83.17
54854;BME280;40747;49.480;8.658;2022-08-19T01:35:45;99859.06;;;21.71;83.49
54854;BME280;40747;49.480;8.658;2022-08-19T01:38:22;99860.44;;;21.65;84.11
54854;BME280;40747;49.480;8.658;2022-08-19T01:40:48;99849.97;;;21.51;84.84
54854;BME280;40747;49.480;8.658;2022-08-19T01:43:14;99855.97;;;21.43;84.79
54854;BME280;40747;49.480;8.658;2022-08-19T01:45:40;99856.97;;;21.42;84.93
54854;BME280;40747;49.480;8.658;2022-08-19T01:48:07;99854.28;;;21.42;85.03
54854;BME280;40747;49.480;8.658;2022-08-19T01:50:33;99843.47;;;21.43;85.17
54854;BME280;40747;49.480;8.658;2022-08-19T01:53:00;99844.84;;;21.26;86.02
54854;BME280;40747;49.480;8.658;2022-08-19T01:55:26;99844.00;;;20.93;87.56
54854;BME280;40747;49.480;8.658;2022-08-19T01:58:02;99845.75;;;20.72;88.83
54854;BME280;40747;49.480;8.658;2022-08-19T02:00:30;99848.53;;;20.70;88.87
54854;BME280;40747;49.480;8.658;2022-08-19T02:02:56;99852.16;;;20.81;88.64
54854;BME280;40747;49.480;8.658;2022-08-19T02:05:21;99848.53;;;20.70;88.52
54854;BME280;40747;49.480;8.658;2022-08-19T02:07:48;99857.16;;;20.74;88.29
54854;BME280;40747;49.480;8.658;2022-08-19T02:10:17;99855.84;;;20.79;88.13
54854;BME280;40747;49.480;8.658;2022-08-19T02:12:43;99861.75;;;20.94;87.92
54854;BME280;40747;49.480;8.658;2022-08-19T02:15:09;99873.78;;;21.11;87.38
54854;BME280;40747;49.480;8.658;2022-08-19T02:17:35;99870.78;;;21.26;87.36
54854;BME280;40747;49.480;8.658;2022-08-19T02:20:01;99867.59;;;21.32;86.73
54854;BME280;40747;49.480;8.658;2022-08-19T02:22:26;99860.75;;;21.39;86.19
54854;BME280;40747;49.480;8.658;2022-08-19T02:24:54;99871.72;;;21.36;85.58
54854;BME280;40747;49.480;8.658;2022-08-19T02:27:20;99869.97;;;21.47;85.31
54854;BME280;40747;49.480;8.658;2022-08-19T02:29:47;99870.94;;;21.57;85.45
54854;BME280;40747;49.480;8.658;2022-08-19T02:32:14;99873.25;;;21.62;84.90
54854;BME280;40747;49.480;8.658;2022-08-19T02:34:39;99876.50;;;21.65;85.53
54854;BME280;40747;49.480;8.658;2022-08-19T02:37:05;99881.88;;;21.65;85.07
54854;BME280;40747;49.480;8.658;2022-08-19T02:39:30;99873.28;;;21.71;85.19
54854;BME280;40747;49.480;8.658;2022-08-19T02:41:56;99863.56;;;21.70;84.56
54854;BME280;40747;49.480;8.658;2022-08-19T02:44:21;99859.88;;;21.71;84.12
54854;BME280;40747;49.480;8.658;2022-08-19T02:46:48;99858.88;;;21.63;83.99
54854;BME280;40747;49.480;8.658;2022-08-19T02:49:15;99859.50;;;21.55;84.43
54854;BME280;40747;49.480;8.658;2022-08-19T02:51:42;99855.84;;;21.56;84.75
54854;BME280;40747;49.480;8.658;2022-08-19T02:54:10;99850.97;;;21.50;84.78
54854;BME280;40747;49.480;8.658;2022-08-19T02:56:38;99864.66;;;21.35;85.38
54854;BME280;40747;49.480;8.658;2022-08-19T02:59:05;99858.72;;;21.32;86.41
54854;BME280;40747;49.480;8.658;2022-08-19T03:01:35;99841.63;;;21.11;86.62
54854;BME280;40747;49.480;8.658;2022-08-19T03:04:02;99844.56;;;21.08;87.25
54854;BME280;40747;49.480;8.658;2022-08-19T03:06:29;99853.84;;;20.93;87.95
54854;BME280;40747;49.480;8.658;2022-08-19T03:08:55;99853.16;;;20.79;88.46
54854;BME280;40747;49.480;8.658;2022-08-19T03:11:27;99852.91;;;20.83;88.52
54854;BME280;40747;49.480;8.658;2022-08-19T03:13:54;99848.50;;;20.82;88.45
54854;BME280;40747;49.480;8.658;2022-08-19T03:16:22;99849.44;;;21.03;88.20
54854;BME280;40747;49.480;8.658;2022-08-19T03:18:48;99856.72;;;21.13;87.71
54854;BME280;40747;49.480;8.658;2022-08-19T03:21:19;99853.53;;;21.19;87.69
54854;BME280;40747;49.480;8.658;2022-08-19T03:23:45;99849.28;;;21.16;87.29
54854;BME280;40747;49.480;8.658;2022-08-19T03:26:11;99853.66;;;21.17;87.00
54854;BME280;40747;49.480;8.658;2022-08-19T03:28:36;99848.81;;;21.11;87.08
54854;BME280;40747;49.480;8.658;2022-08-19T03:31:12;99856.63;;;21.03;87.15
54854;BME280;40747;49.480;8.658;2022-08-19T03:33:37;99842.31;;;20.81;87.72
54854;BME280;40747;49.480;8.658;2022-08-19T03:36:10;99853.78;;;20.72;88.59
54854;BME280;40747;49.480;8.658;2022-08-19T03:38:40;99863.25;;;20.76;88.21
54854;BME280;40747;49.480;8.658;2022-08-19T03:41:09;99877.59;;;20.86;88.30
54854;BME280;40747;49.480;8.658;2022-08-19T03:43:39;99880.00;;;20.89;88.12
54854;BME280;40747;49.480;8.658;2022-08-19T03:46:11;99880.00;;;20.89;88.13
54854;BME280;40747;49.480;8.658;2022-08-19T03:48:39;99879.78;;;20.92;88.20
54854;BME280;40747;49.480;8.658;2022-08-19T03:51:07;99873.81;;;20.89;87.77
54854;BME280;40747;49.480;8.658;2022-08-19T03:53:34;99886.44;;;20.98;87.73
54854;BME280;40747;49.480;8.658;2022-08-19T03:56:00;99889.63;;;20.92;87.45
54854;BME280;40747;49.480;8.658;2022-08-19T03:58:27;99888.41;;;20.96;88.04
54854;BME280;40747;49.480;8.658;2022-08-19T04:00:54;99887.41;;;20.97;87.42
54854;BME280;40747;49.480;8.658;2022-08-19T04:03:20;99896.44;;;20.96;87.63
54854;BME280;40747;49.480;8.658;2022-08-19T04:05:46;99881.25;;;20.74;87.54
54854;BME280;40747;49.480;8.658;2022-08-19T04:08:12;99888.28;;;20.63;88.17
54854;BME280;40747;49.480;8.658;2022-08-19T04:10:38;99888.91;;;20.44;88.96
54854;BME280;40747;49.480;8.658;2022-08-19T04:13:05;99888.16;;;20.20;90.10
54854;BME280;40747;49.480;8.658;2022-08-19T04:15:32;99886.31;;;20.09;90.59
54854;BME280;40747;49.480;8.658;2022-08-19T04:18:04;99875.38;;;20.12;90.88
54854;BME280;40747;49.480;8.658;2022-08-19T04:20:31;99890.81;;;20.08;91.02
54854;BME280;40747;49.480;8.658;2022-08-19T04:22:56;99885.47;;;20.20;90.44
54854;BME280;40747;49.480;8.658;2022-08-19T04:25:22;99884.22;;;20.01;90.93
54854;BME280;40747;49.480;8.658;2022-08-19T04:27:47;99883.06;;;19.81;92.26
54854;BME280;40747;49.480;8.658;2022-08-19T04:30:13;99881.00;;;19.73;93.04
54854;BME280;40747;49.480;8.658;2022-08-19T04:32:39;99882.91;;;19.71;93.02
54854;BME280;40747;49.480;8.658;2022-08-19T04:35:04;99889.56;;;19.90;92.63
54854;BME280;40747;49.480;8.658;2022-08-19T04:37:30;99895.91;;;20.00;91.78
54854;BME280;40747;49.480;8.658;2022-08-19T04:39:58;99881.34;;;20.16;91.05
54854;BME280;40747;49.480;8.658;2022-08-19T04:42:42;99879.28;;;20.30;90.67
54854;BME280;40747;49.480;8.658;2022-08-19T04:45:10;99883.19;;;20.38;90.57
54854;BME280;40747;49.480;8.658;2022-08-19T04:47:41;99881.56;;;20.12;90.53
54854;BME280;40747;49.480;8.658;2022-08-19T04:50:09;99879.13;;;19.98;91.71
54854;BME280;40747;49.480;8.658;2022-08-19T04:52:38;99876.47;;;19.98;91.26
54854;BME280;40747;49.480;8.658;2022-08-19T04:55:07;99878.56;;;19.81;92.22
54854;BME280;40747;49.480;8.658;2022-08-19T04:57:33;99888.88;;;19.75;92.35
54854;BME280;40747;49.480;8.658;2022-08-19T04:59:58;99886.34;;;19.73;92.86
54854;BME280;40747;49.480;8.658;2022-08-19T05:02:23;99892.69;;;19.48;93.95
54854;BME280;40747;49.480;8.658;2022-08-19T05:04:55;99885.72;;;19.70;93.62
54854;BME280;40747;49.480;8.658;2022-08-19T05:07:21;99888.50;;;19.68;93.49
54854;BME280;40747;49.480;8.658;2022-08-19T05:09:46;99876.88;;;19.80;93.12
54854;BME280;40747;49.480;8.658;2022-08-19T05:12:11;99880.06;;;19.86;93.01
54854;BME280;40747;49.480;8.658;2022-08-19T05:14:36;99880.47;;;19.92;92.73
54854;BME280;40747;49.480;8.658;2022-08-19T05:17:02;99881.69;;;20.00;92.41
54854;BME280;40747;49.480;8.658;2022-08-19T05:19:27;99888.84;;;19.99;92.61
54854;BME280;40747;49.480;8.658;2022-08-19T05:22:11;99902.47;;;20.07;92.44
54854;BME280;40747;49.480;8.658;2022-08-19T05:24:55;99893.00;;;20.03;93.04
54854;BME280;40747;49.480;8.658;2022-08-19T05:27:20;99894.66;;;19.93;93.11
54854;BME280;40747;49.480;8.658;2022-08-19T05:29:45;99884.22;;;19.90;93.06
54854;BME280;40747;49.480;8.658;2022-08-19T05:32:11;99892.75;;;19.95;93.34
54854;BME280;40747;49.480;8.658;2022-08-19T05:34:37;99892.28;;;20.12;92.79
54854;BME280;40747;49.480;8.658;2022-08-19T05:37:03;99901.47;;;19.97;93.30
54854;BME280;40747;49.480;8.658;2022-08-19T05:39:32;99916.47;;;20.11;92.85
54854;BME280;40747;49.480;8.658;2022-08-19T05:41:59;99914.03;;;20.19;92.12
54854;BME280;40747;49.480;8.658;2022-08-19T05:44:28;99916.88;;;20.40;91.47
54854;BME280;40747;49.480;8.658;2022-08-19T05:46:57;99916.50;;;20.45;90.86
54854;BME280;40747;49.480;8.658;2022-08-19T05:49:23;99925.38;;;20.57;90.99
54854;BME280;40747;49.480;8.658;2022-08-19T05:51:49;99934.38;;;20.67;90.31
54854;BME280;40747;49.480;8.658;2022-08-19T05:54:15;99935.34;;;20.66;90.37
54854;BME280;40747;49.480;8.658;2022-08-19T05:56:41;99945.34;;;20.75;90.23
54854;BME280;40747;49.480;8.658;2022-08-19T05:59:08;99949.59;;;20.89;89.65
54854;BME280;40747;49.480;8.658;2022-08-19T06:01:33;99950.97;;;20.95;89.15
54854;BME280;40747;49.480;8.658;2022-08-19T06:03:59;99952.88;;;21.04;88.60
54854;BME280;40747;49.480;8.658;2022-08-19T06:06:24;99958.38;;;20.91;88.31
54854;BME280;40747;49.480;8.658;2022-08-19T06:08:50;99972.00;;;21.00;87.93
54854;BME280;40747;49.480;8.658;2022-08-19T06:11:33;99973.34;;;21.05;87.67
54854;BME280;40747;49.480;8.658;2022-08-19T06:14:03;99973.81;;;20.99;87.59
54854;BME280;40747;49.480;8.658;2022-08-19T06:16:29;99974.78;;;20.98;87.66
54854;BME280;40747;49.480;8.658;2022-08-19T06:18:59;99983.16;;;21.16;87.84
54854;BME280;40747;49.480;8.658;2022-08-19T06:21:27;99980.97;;;21.21;86.21
54854;BME280;40747;49.480;8.658;2022-08-19T06:23:54;99978.78;;;21.26;85.89
54854;BME280;40747;49.480;8.658;2022-08-19T06:26:20;99977.19;;;21.24;86.13
54854;BME280;40747;49.480;8.658;2022-08-19T06:28:46;99989.25;;;21.30;86.01
54854;BME280;40747;49.480;8.658;2022-08-19T06:31:13;99988.91;;;21.23;85.90
54854;BME280;40747;49.480;8.658;2022-08-19T06:33:40;99994.47;;;21.31;85.67
54854;BME280;40747;49.480;8.658;2022-08-19T06:36:06;100000.56;;;21.44;85.16
54854;BME280;40747;49.480;8.658;2022-08-19T06:38:32;99995.44;;;21.41;84.77
54854;BME280;40747;49.480;8.658;2022-08-19T06:41:05;100000.44;;;21.35;85.37
54854;BME280;40747;49.480;8.658;2022-08-19T06:43:30;99998.94;;;21.42;85.42
54854;BME280;40747;49.480;8.658;2022-08-19T06:45:56;99992.75;;;21.41;85.24
54854;BME280;40747;49.480;8.658;2022-08-19T06:48:21;99995.31;;;21.43;84.90
54854;BME280;40747;49.480;8.658;2022-08-19T06:50:46;99993.69;;;21.52;84.91
54854;BME280;40747;49.480;8.658;2022-08-19T06:53:13;100001.88;;;21.50;83.56
54854;BME280;40747;49.480;8.658;2022-08-19T06:55:38;100004.22;;;21.55;83.47
54854;BME280;40747;49.480;8.658;2022-08-19T06:58:04;100006.28;;;21.63;83.60
54854;BME280;40747;49.480;8.658;2022-08-19T07:00:30;100003.78;;;21.71;82.96
54854;BME280;40747;49.480;8.658;2022-08-19T07:02:55;100003.91;;;21.81;82.65
54854;BME280;40747;49.480;8.658;2022-08-19T07:05:20;100000.25;;;21.82;82.38
54854;BME280;40747;49.480;8.658;2022-08-19T07:07:46;100001.13;;;21.71;83.14
54854;BME280;40747;49.480;8.658;2022-08-19T07:10:11;100008.00;;;21.85;82.91
54854;BME280;40747;49.480;8.658;2022-08-19T07:12:36;99999.16;;;22.05;81.83
54854;BME280;40747;49.480;8.658;2022-08-19T07:15:04;99999.38;;;22.14;81.27
54854;BME280;40747;49.480;8.658;2022-08-19T07:17:30;99994.00;;;22.14;81.49
54854;BME280;40747;49.480;8.658;2022-08-19T07:19:56;99988.69;;;22.02;81.20
54854;BME280;40747;49.480;8.658;2022-08-19T07:22:21;99989.16;;;22.07;81.26
54854;BME280;40747;49.480;8.658;2022-08-19T07:24:52;99982.03;;;22.18;80.88
54854;BME280;40747;49.480;8.658;2022-08-19T07:27:18;99990.72;;;22.31;80.35
54854;BME280;40747;49.480;8.658;2022-08-19T07:29:44;99981.06;;;22.19;80.29
54854;BME280;40747;49.480;8.658;2022-08-19T07:32:09;99986.13;;;22.22;80.69
54854;BME280;40747;49.480;8.658;2022-08-19T07:34:36;99990.22;;;22.37;80.37
54854;BME280;40747;49.480;8.658;2022-08-19T07:37:06;99978.13;;;22.43;79.95
54854;BME280;40747;49.480;8.658;2022-08-19T07:39:34;99990.75;;;22.52;79.83
54854;BME280;40747;49.480;8.658;2022-08-19T07:42:02;99987.75;;;22.46;79.32
54854;BME280;40747;49.480;8.658;2022-08-19T07:44:28;99981.97;;;22.29;79.90
54854;BME280;40747;49.480;8.658;2022-08-19T07:46:56;99984.84;;;22.37;79.81
54854;BME280;40747;49.480;8.658;2022-08-19T07:49:22;99994.63;;;22.38;80.11
54854;BME280;40747;49.480;8.658;2022-08-19T07:51:54;99997.16;;;22.61;79.45
54854;BME280;40747;49.480;8.658;2022-08-19T07:54:23;99997.94;;;22.52;79.17
54854;BME280;40747;49.480;8.658;2022-08-19T07:56:49;99995.97;;;22.54;79.38
54854;BME280;40747;49.480;8.658;2022-08-19T07:59:16;99995.81;;;22.46;79.61
54854;BME280;40747;49.480;8.658;2022-08-19T08:01:43;100000.53;;;22.63;79.62
54854;BME280;40747;49.480;8.658;2022-08-19T08:04:09;100000.91;;;22.80;78.41
54854;BME280;40747;49.480;8.658;2022-08-19T08:06:54;99998.97;;;22.91;77.72
54854;BME280;40747;49.480;8.658;2022-08-19T08:09:40;99989.63;;;22.86;77.39
54854;BME280;40747;49.480;8.658;2022-08-19T08:12:08;99987.09;;;22.84;77.74
54854;BME280;40747;49.480;8.658;2022-08-19T08:14:42;99985.09;;;22.77;77.41
54854;BME280;40747;49.480;8.658;2022-08-19T08:17:10;99985.41;;;22.62;78.01
54854;BME280;40747;49.480;8.658;2022-08-19T08:19:36;99981.88;;;22.62;78.92
54854;BME280;40747;49.480;8.658;2022-08-19T08:22:01;99995.53;;;22.80;77.87
54854;BME280;40747;49.480;8.658;2022-08-19T08:24:30;99996.63;;;22.98;77.24
54854;BME280;40747;49.480;8.658;2022-08-19T08:27:00;99987.25;;;23.23;76.61
54854;BME280;40747;49.480;8.658;2022-08-19T08:29:30;99989.59;;;23.58;75.16
54854;BME280;40747;49.480;8.658;2022-08-19T08:31:56;99984.22;;;23.87;74.54
54854;BME280;40747;49.480;8.658;2022-08-19T08:34:22;99975.44;;;24.24;72.70
54854;BME280;40747;49.480;8.658;2022-08-19T08:36:48;99980.03;;;24.61;71.23
54854;BME280;40747;49.480;8.658;2022-08-19T08:39:15;99983.38;;;24.83;69.97
54854;BME280;40747;49.480;8.658;2022-08-19T08:44:19;99989.00;;;24.99;69.47
54854;BME280;40747;49.480;8.658;2022-08-19T08:46:53;99991.44;;;24.93;69.33
54854;BME280;40747;49.480;8.658;2022-08-19T08:49:41;99995.38;;;24.98;69.03
54854;BME280;40747;49.480;8.658;2022-08-19T08:52:18;99994.78;;;25.32;68.02
54854;BME280;40747;49.480;8.658;2022-08-19T08:54:48;100002.00;;;25.42;68.48
54854;BME280;40747;49.480;8.658;2022-08-19T08:57:20;99998.53;;;25.85;67.18
54854;BME280;40747;49.480;8.658;2022-08-19T08:59:50;99990.59;;;26.02;65.87
54854;BME280;40747;49.480;8.658;2022-08-19T09:02:18;99989.31;;;25.88;64.36
54854;BME280;40747;49.480;8.658;2022-08-19T09:04:44;100000.47;;;25.93;64.75
54854;BME280;40747;49.480;8.658;2022-08-19T09:09:44;99986.25;;;26.45;62.32
54854;BME280;40747;49.480;8.658;2022-08-19T09:14:52;99985.34;;;26.37;61.84
54854;BME280;40747;49.480;8.658;2022-08-19T09:17:22;99983.50;;;26.37;62.04
54854;BME280;40747;49.480;8.658;2022-08-19T09:20:05;99975.22;;;26.39;61.13
54854;BME280;40747;49.480;8.658;2022-08-19T09:22:34;99982.16;;;26.41;61.68
54854;BME280;40747;49.480;8.658;2022-08-19T09:25:00;99986.06;;;26.47;60.79
54854;BME280;40747;49.480;8.658;2022-08-19T09:27:27;99983.78;;;26.34;61.47
54854;BME280;40747;49.480;8.658;2022-08-19T09:29:53;99978.13;;;26.72;60.95
54854;BME280;40747;49.480;8.658;2022-08-19T09:32:19;99986.09;;;26.73;59.85
54854;BME280;40747;49.480;8.658;2022-08-19T09:34:45;99985.88;;;26.66;60.66
54854;BME280;40747;49.480;8.658;2022-08-19T09:37:13;99984.41;;;27.07;59.87
54854;BME280;40747;49.480;8.658;2022-08-19T09:39:39;99984.75;;;27.12;59.22
54854;BME280;40747;49.480;8.658;2022-08-19T09:42:06;99982.75;;;27.22;59.52
54854;BME280;40747;49.480;8.658;2022-08-19T09:44:37;99985.81;;;27.19;58.64
54854;BME280;40747;49.480;8.658;2022-08-19T09:47:02;99985.75;;;27.54;58.34
54854;BME280;40747;49.480;8.658;2022-08-19T09:49:28;99978.69;;;27.94;57.55
54854;BME280;40747;49.480;8.658;2022-08-19T09:51:54;99981.91;;;27.73;57.26
54854;BME280;40747;49.480;8.658;2022-08-19T09:54:21;99973.25;;;27.61;57.45
54854;BME280;40747;49.480;8.658;2022-08-19T09:56:46;99971.25;;;27.79;57.15
54854;BME280;40747;49.480;8.658;2022-08-19T09:59:12;99970.59;;;28.02;57.06
54854;BME280;40747;49.480;8.658;2022-08-19T10:01:38;99966.72;;;28.05;57.27
54854;BME280;40747;49.480;8.658;2022-08-19T10:04:04;99959.25;;;27.99;56.39
54854;BME280;40747;49.480;8.658;2022-08-19T10:06:34;99973.28;;;27.69;57.73
54854;BME280;40747;49.480;8.658;2022-08-19T10:08:59;99982.28;;;28.03;56.56
54854;BME280;40747;49.480;8.658;2022-08-19T10:11:25;99976.53;;;28.06;56.56
54854;BME280;40747;49.480;8.658;2022-08-19T10:13:51;99978.88;;;27.92;55.85
54854;BME280;40747;49.480;8.658;2022-08-19T10:16:21;99968.53;;;28.37;54.65
54854;BME280;40747;49.480;8.658;2022-08-19T10:18:48;99969.41;;;28.38;54.60
54854;BME280;40747;49.480;8.658;2022-08-19T10:21:15;99971.63;;;28.09;53.46
54854;BME280;40747;49.480;8.658;2022-08-19T10:23:43;99967.50;;;28.47;54.68
54854;BME280;40747;49.480;8.658;2022-08-19T10:26:19;99966.25;;;28.82;54.16
54854;BME280;40747;49.480;8.658;2022-08-19T10:28:45;99972.59;;;28.50;53.28
54854;BME280;40747;49.480;8.658;2022-08-19T10:31:13;99968.56;;;28.29;52.60
54854;BME280;40747;49.480;8.658;2022-08-19T10:33:39;99962.25;;;28.70;53.11
54854;BME280;40747;49.480;8.658;2022-08-19T10:36:11;99965.56;;;28.88;52.57
54854;BME280;40747;49.480;8.658;2022-08-19T10:38:37;99963.09;;;29.10;51.87
54854;BME280;40747;49.480;8.658;2022-08-19T10:41:14;99963.25;;;29.48;51.11
54854;BME280;40747;49.480;8.658;2022-08-19T10:43:40;99959.75;;;29.63;49.89
54854;BME280;40747;49.480;8.658;2022-08-19T10:46:08;99954.41;;;29.54;50.28
54854;BME280;40747;49.480;8.658;2022-08-19T10:48:34;99961.97;;;29.82;50.43
54854;BME280;40747;49.480;8.658;2022-08-19T10:51:00;99941.00;;;29.76;50.57
54854;BME280;40747;49.480;8.658;2022-08-19T10:53:44;99958.72;;;29.95;49.55
54854;BME280;40747;49.480;8.658;2022-08-19T10:56:09;99955.94;;;29.72;50.44
54854;BME280;40747;49.480;8.658;2022-08-19T10:58:53;99962.88;;;29.51;51.88
54854;BME280;40747;49.480;8.658;2022-08-19T11:01:19;99952.16;;;29.26;52.20
54854;BME280;40747;49.480;8.658;2022-08-19T11:03:45;99949.66;;;29.17;52.17
54854;BME280;40747;49.480;8.658;2022-08-19T11:06:11;99934.34;;;29.01;52.85
54854;BME280;40747;49.480;8.658;2022-08-19T11:08:36;99937.19;;;29.07;52.32
54854;BME280;40747;49.480;8.658;2022-08-19T11:11:06;99917.34;;;28.75;52.27
54854;BME280;40747;49.480;8.658;2022-08-19T11:13:34;99909.56;;;29.04;52.22
54854;BME280;40747;49.480;8.658;2022-08-19T11:16:05;99905.44;;;29.16;52.00
54854;BME280;40747;49.480;8.658;2022-08-19T11:18:32;99907.19;;;28.77;52.80
54854;BME280;40747;49.480;8.658;2022-08-19T11:21:08;99910.69;;;28.22;53.87
54854;BME280;40747;49.480;8.658;2022-08-19T11:23:33;99915.88;;;28.48;53.40
54854;BME280;40747;49.480;8.658;2022-08-19T11:25:59;99918.78;;;28.94;51.57
54854;BME280;40747;49.480;8.658;2022-08-19T11:28:26;99917.91;;;29.25;51.54
54854;BME280;40747;49.480;8.658;2022-08-19T11:30:51;99904.84;;;29.61;50.68
54854;BME280;40747;49.480;8.658;2022-08-19T11:33:16;99902.22;;;29.90;49.67
54854;BME280;40747;49.480;8.658;2022-08-19T11:35:42;99904.69;;;29.77;48.94
54854;BME280;40747;49.480;8.658;2022-08-19T11:38:07;99892.41;;;29.66;48.61
54854;BME280;40747;49.480;8.658;2022-08-19T11:40:32;99901.72;;;29.87;48.85
54854;BME280;40747;49.480;8.658;2022-08-19T11:42:58;99901.22;;;29.91;49.17
54854;BME280;40747;49.480;8.658;2022-08-19T11:45:25;99899.88;;;29.41;49.64
54854;BME280;40747;49.480;8.658;2022-08-19T11:47:52;99900.94;;;29.00;50.01
54854;BME280;40747;49.480;8.658;2022-08-19T11:50:18;99902.00;;;28.91;49.32
54854;BME280;40747;49.480;8.658;2022-08-19T11:52:44;99901.13;;;28.99;47.73
54854;BME280;40747;49.480;8.658;2022-08-19T11:55:10;99906.03;;;29.03;48.56
54854;BME280;40747;49.480;8.658;2022-08-19T11:57:36;99891.50;;;29.28;48.08
54854;BME280;40747;49.480;8.658;2022-08-19T12:00:03;99892.38;;;28.88;47.72
54854;BME280;40747;49.480;8.658;2022-08-19T12:02:30;99905.59;;;28.91;48.24
54854;BME280;40747;49.480;8.658;2022-08-19T12:04:55;99899.59;;;29.04;48.39
54854;BME280;40747;49.480;8.658;2022-08-19T12:07:21;99898.38;;;29.07;49.02
54854;BME280;40747;49.480;8.658;2022-08-19T12:09:46;99894.88;;;28.98;48.93
54854;BME280;40747;49.480;8.658;2022-08-19T12:12:12;99902.13;;;28.98;49.09
54854;BME280;40747;49.480;8.658;2022-08-19T12:14:38;99895.91;;;29.29;48.93
54854;BME280;40747;49.480;8.658;2022-08-19T12:17:04;99903.44;;;29.10;49.37
54854;BME280;40747;49.480;8.658;2022-08-19T12:19:31;99899.22;;;29.39;49.17
54854;BME280;40747;49.480;8.658;2022-08-19T12:22:00;99898.63;;;29.20;48.33
54854;BME280;40747;49.480;8.658;2022-08-19T12:24:30;99904.75;;;29.14;49.12
54854;BME280;40747;49.480;8.658;2022-08-19T12:26:56;99904.84;;;28.98;49.10
54854;BME280;40747;49.480;8.658;2022-08-19T12:29:23;99906.34;;;28.69;49.73
54854;BME280;40747;49.480;8.658;2022-08-19T12:31:53;99911.53;;;28.78;49.11
54854;BME280;40747;49.480;8.658;2022-08-19T12:34:19;99908.56;;;29.05;48.45
54854;BME280;40747;49.480;8.658;2022-08-19T12:36:45;99911.44;;;28.64;48.63
54854;BME280;40747;49.480;8.658;2022-08-19T12:39:10;99913.81;;;28.58;47.65
54854;BME280;40747;49.480;8.658;2022-08-19T12:41:36;99915.25;;;28.38;48.89
54854;BME280;40747;49.480;8.658;2022-08-19T12:44:02;99908.13;;;28.85;47.80
54854;BME280;40747;49.480;8.658;2022-08-19T12:46:28;99910.81;;;28.93;47.55
54854;BME280;40747;49.480;8.658;2022-08-19T12:48:53;99909.00;;;29.17;47.28
54854;BME280;40747;49.480;8.658;2022-08-19T12:51:19;99907.63;;;29.21;47.15
54854;BME280;40747;49.480;8.658;2022-08-19T12:53:45;99917.53;;;28.74;47.17
54854;BME280;40747;49.480;8.658;2022-08-19T12:56:12;99920.75;;;28.53;47.25
54854;BME280;40747;49.480;8.658;2022-08-19T12:58:40;99917.88;;;28.54;47.58
54854;BME280;40747;49.480;8.658;2022-08-19T13:01:08;99920.69;;;28.13;47.97
54854;BME280;40747;49.480;8.658;2022-08-19T13:03:35;99915.28;;;28.05;48.42
54854;BME280;40747;49.480;8.658;2022-08-19T13:06:02;99919.00;;;28.20;49.31
54854;BME280;40747;49.480;8.658;2022-08-19T13:08:27;99910.94;;;28.52;48.61
54854;BME280;40747;49.480;8.658;2022-08-19T13:10:52;99916.84;;;28.55;48.30